Time;durP1;ratioP1;P1;durP2;ratioP2;P2;SDS_P1;SDS_P2;PMS_P1;PMS_P2;Temp;Humidity;BMP_temperature;BMP_pressure;BME280_temperature;BME280_humidity;BME280_pressure;Samples;Min_cycle;Max_cycle;Signal;HPM_P1;HPM_P2
2021/01/16 00:00:35;;;;;;;2.40;1.50;;;;;;;-1.75;61.96;102241.95;120316;1152;65201;-67
2021/01/16 00:03:07;;;;;;;5.35;2.10;;;;;;;-1.73;62.32;102240.14;120275;1151;65678;-68
2021/01/16 00:05:34;;;;;;;2.53;1.53;;;;;;;-1.73;62.14;102234.94;118912;1151;65143;-68
2021/01/16 00:08:03;;;;;;;3.27;1.60;;;;;;;-1.75;62.52;102241.95;119379;1151;66245;-67
2021/01/16 00:10:31;;;;;;;2.17;1.27;;;;;;;-1.77;61.52;102228.16;119154;1151;65091;-69
2021/01/16 00:12:58;;;;;;;2.87;2.10;;;;;;;-1.77;61.93;102235.12;118963;1151;65214;-67
2021/01/16 00:15:26;;;;;;;3.70;1.80;;;;;;;-1.78;62.25;102230.84;119338;1151;65120;-70
2021/01/16 00:18:07;;;;;;;3.60;2.10;;;;;;;-1.81;62.77;102233.53;119574;1151;65121;-69
2021/01/16 00:20:37;;;;;;;5.07;2.00;;;;;;;-1.83;62.93;102236.18;122578;1149;63015;-70
2021/01/16 00:23:05;;;;;;;4.40;2.03;;;;;;;-1.86;62.75;102228.50;122446;1152;62891;-70
2021/01/16 00:25:31;;;;;;;4.97;2.00;;;;;;;-1.86;63.28;102229.34;122390;1151;63308;-70
2021/01/16 00:27:58;;;;;;;4.70;1.83;;;;;;;-1.87;63.46;102225.06;122635;1151;64438;-69
2021/01/16 00:30:28;;;;;;;2.97;1.67;;;;;;;-1.85;63.18;102217.18;120195;1151;65121;-70
2021/01/16 00:32:56;;;;;;;3.67;1.90;;;;;;;-1.82;62.76;102214.48;122208;1151;63155;-70
2021/01/16 00:35:25;;;;;;;3.87;2.27;;;;;;;-1.83;61.89;102212.77;122440;1151;62979;-70
2021/01/16 00:37:52;;;;;;;2.53;1.60;;;;;;;-1.80;61.58;102212.67;122462;1151;63113;-69
2021/01/16 00:40:22;;;;;;;3.10;2.00;;;;;;;-1.81;61.61;102210.13;122332;1151;63956;-69
2021/01/16 00:42:50;;;;;;;2.90;1.77;;;;;;;-1.81;62.41;102205.76;122906;1150;62944;-69
2021/01/16 00:45:19;;;;;;;4.00;1.77;;;;;;;-1.81;62.28;102216.16;122563;1151;64989;-69
2021/01/16 00:47:47;;;;;;;3.70;2.17;;;;;;;-1.80;62.88;102209.23;122469;1152;62984;-69
2021/01/16 00:50:15;;;;;;;4.40;1.77;;;;;;;-1.78;61.97;102210.86;122400;1151;63616;-69
2021/01/16 00:52:52;;;;;;;2.33;1.20;;;;;;;-1.78;62.01;102213.47;122464;1151;64121;-68
2021/01/16 00:55:19;;;;;;;4.67;1.77;;;;;;;-1.82;62.82;102211.04;122553;1151;64309;-69
2021/01/16 00:57:45;;;;;;;3.93;2.33;;;;;;;-1.82;62.48;102200.64;122527;1151;63469;-69
2021/01/16 01:00:12;;;;;;;2.47;1.70;;;;;;;-1.82;63.40;102204.08;122480;1151;63179;-68
2021/01/16 01:02:43;;;;;;;5.13;2.27;;;;;;;-1.79;63.09;102201.34;122032;1151;64139;-68
2021/01/16 01:05:11;;;;;;;3.83;2.37;;;;;;;-1.79;62.74;102200.51;118870;1151;65137;-70
2021/01/16 01:07:38;;;;;;;2.77;1.30;;;;;;;-1.77;63.43;102194.34;121257;1151;65248;-67
2021/01/16 01:10:08;;;;;;;5.27;2.77;;;;;;;-1.82;63.92;102193.67;120721;1149;65121;-68
2021/01/16 01:12:40;;;;;;;9.43;2.87;;;;;;;-1.84;63.78;102198.08;119475;1151;65210;-67
2021/01/16 01:15:08;;;;;;;4.23;3.00;;;;;;;-1.86;63.28;102198.13;119605;1151;66324;-68
2021/01/16 01:17:35;;;;;;;5.43;2.63;;;;;;;-1.86;63.46;102195.53;119728;1152;65178;-70
2021/01/16 01:20:04;;;;;;;5.35;2.65;;;;;;;-1.87;63.32;102195.58;118827;1151;65178;-75
2021/01/16 01:22:35;;;;;;;4.40;1.63;;;;;;;-1.91;63.44;102200.07;121461;1151;67007;-72
2021/01/16 01:25:03;;;;;;;4.03;1.97;;;;;;;-1.92;63.56;102198.36;119114;1149;65056;-72
2021/01/16 01:27:29;;;;;;;3.73;2.63;;;;;;;-1.95;62.81;102197.65;118864;1151;65125;-70
2021/01/16 01:29:56;;;;;;;4.20;2.03;;;;;;;-1.98;60.75;102192.55;118896;1151;65148;-72
2021/01/16 01:32:22;;;;;;;2.73;1.90;;;;;;;-1.99;60.98;102190.86;118860;1151;65097;-68
2021/01/16 01:34:49;;;;;;;2.95;1.80;;;;;;;-2.00;60.48;102189.15;118807;1151;65186;-71
2021/01/16 01:37:15;;;;;;;3.77;2.33;;;;;;;-2.06;60.27;102180.69;118868;1151;65619;-71
2021/01/16 01:39:42;;;;;;;4.07;1.90;;;;;;;-2.10;60.18;102184.30;118904;1151;65113;-69
2021/01/16 01:42:17;;;;;;;6.65;3.30;;;;;;;-2.12;59.65;102180.91;118764;1151;65455;-69
2021/01/16 01:44:44;;;;;;;3.20;1.60;;;;;;;-2.17;59.53;102182.81;119215;1151;65121;-70
2021/01/16 01:47:13;;;;;;;3.63;2.20;;;;;;;-2.17;60.32;102176.77;119091;1151;65024;-69
2021/01/16 01:49:41;;;;;;;3.07;1.70;;;;;;;-2.23;59.57;102177.86;118968;1151;65151;-70
2021/01/16 01:52:12;;;;;;;3.87;2.03;;;;;;;-2.27;59.29;102182.31;118906;1151;65226;-69
2021/01/16 01:54:39;;;;;;;3.37;1.77;;;;;;;-2.27;60.14;102184.08;119012;1151;65143;-69
2021/01/16 01:57:08;;;;;;;2.83;1.90;;;;;;;-2.28;60.29;102179.77;119501;1151;66298;-69
2021/01/16 01:59:36;;;;;;;2.30;1.55;;;;;;;-2.30;60.74;102186.77;118848;1151;65246;-68
2021/01/16 02:02:04;;;;;;;3.70;1.67;;;;;;;-2.31;61.56;102185.92;118916;1151;65207;-68
2021/01/16 02:04:32;;;;;;;3.85;2.15;;;;;;;-2.31;60.98;102169.49;118909;1151;65031;-70
2021/01/16 02:07:00;;;;;;;3.30;2.60;;;;;;;-2.30;61.90;102176.37;118864;1151;65099;-72
2021/01/16 02:09:27;;;;;;;5.00;2.20;;;;;;;-2.31;60.51;102177.29;118854;1151;65222;-68
2021/01/16 02:11:54;;;;;;;4.73;2.27;;;;;;;-2.31;60.77;102179.89;118832;1151;65118;-69
2021/01/16 02:14:27;;;;;;;4.03;2.20;;;;;;;-2.33;61.01;102176.50;118882;1151;65567;-67
2021/01/16 02:16:55;;;;;;;4.30;2.47;;;;;;;-2.35;60.35;102173.94;119180;1151;65037;-70
2021/01/16 02:19:50;;;;;;;4.45;2.70;;;;;;;-2.36;59.25;102176.59;118880;1151;65117;-68
2021/01/16 02:22:21;;;;;;;3.80;2.33;;;;;;;-2.36;59.64;102181.78;118810;1151;65202;-70
2021/01/16 02:25:13;;;;;;;5.33;2.50;;;;;;;-2.37;60.24;102186.14;119027;1151;65101;-67
2021/01/16 02:27:53;;;;;;;3.40;2.15;;;;;;;-2.37;60.21;102182.70;118803;1151;65214;-67
2021/01/16 02:30:21;;;;;;;4.17;2.50;;;;;;;-2.39;61.44;102177.55;118888;1151;65226;-71
2021/01/16 02:32:49;;;;;;;3.83;2.20;;;;;;;-2.38;61.53;102184.46;119303;1151;65150;-70
2021/01/16 02:35:17;;;;;;;4.65;2.20;;;;;;;-2.37;60.96;102175.75;119373;1151;65175;-70
2021/01/16 02:37:51;;;;;;;2.95;1.60;;;;;;;-2.35;61.17;102175.70;119777;1151;65117;-68
2021/01/16 02:40:31;;;;;;;5.47;2.98;;;;;;;-2.31;61.90;102179.89;119055;1151;65149;-71
2021/01/16 02:43:04;;;;;;;5.77;2.90;;;;;;;-2.29;62.08;102178.08;118868;1151;65094;-70
2021/01/16 02:45:38;;;;;;;4.97;2.33;;;;;;;-2.27;61.58;102177.12;118938;1151;65117;-70
2021/01/16 02:48:22;;;;;;;4.53;2.50;;;;;;;-2.24;61.59;102176.16;119086;1151;65248;-67
2021/01/16 02:50:55;;;;;;;4.87;2.67;;;;;;;-2.24;61.63;102176.16;119304;1151;65154;-67
2021/01/16 02:53:33;;;;;;;4.33;2.13;;;;;;;-2.22;61.58;102169.14;119636;1151;65140;-69
2021/01/16 02:56:12;;;;;;;5.47;2.57;;;;;;;-2.19;61.66;102173.38;119286;1151;65047;-66
2021/01/16 02:58:38;;;;;;;3.97;2.00;;;;;;;-2.17;61.83;102169.81;118898;1151;65145;-68
2021/01/16 03:01:05;;;;;;;4.60;2.40;;;;;;;-2.16;61.47;102170.69;118920;1151;65146;-67
2021/01/16 03:03:33;;;;;;;4.80;2.53;;;;;;;-2.16;62.19;102165.48;118827;1151;65136;-69
2021/01/16 03:06:01;;;;;;;9.30;3.25;;;;;;;-2.17;61.62;102166.38;118979;1151;65066;-69
2021/01/16 03:08:28;;;;;;;3.17;2.10;;;;;;;-2.18;61.72;102165.53;118966;1151;65111;-71
2021/01/16 03:10:57;;;;;;;7.13;2.53;;;;;;;-2.17;61.36;102167.21;119079;1151;65114;-70
2021/01/16 03:13:25;;;;;;;3.27;2.07;;;;;;;-2.18;61.41;102160.33;119742;1151;64024;-69
2021/01/16 03:15:52;;;;;;;4.10;2.45;;;;;;;-2.17;61.40;102164.61;118970;1151;65251;-73
2021/01/16 03:18:23;;;;;;;4.30;2.90;;;;;;;-2.17;60.90;102158.57;118874;1151;65118;-68
2021/01/16 03:20:49;;;;;;;3.63;2.13;;;;;;;-2.16;61.68;102155.09;118816;1151;65151;-68
2021/01/16 03:23:16;;;;;;;3.97;2.10;;;;;;;-2.18;61.71;102154.30;118777;1151;65122;-68
2021/01/16 03:25:43;;;;;;;3.40;1.70;;;;;;;-2.18;60.99;102155.13;119041;1151;65209;-68
2021/01/16 03:28:09;;;;;;;4.80;2.50;;;;;;;-2.19;61.04;102152.58;118852;1151;65028;-67
2021/01/16 03:30:36;;;;;;;4.27;2.50;;;;;;;-2.21;61.38;102155.27;118968;1151;65759;-69
2021/01/16 03:33:03;;;;;;;4.25;2.40;;;;;;;-2.20;61.12;102146.54;118786;1151;65172;-68
2021/01/16 03:35:29;;;;;;;4.70;2.95;;;;;;;-2.22;61.27;102148.35;119265;1151;65140;-67
2021/01/16 03:37:56;;;;;;;3.80;2.45;;;;;;;-2.21;61.98;102146.59;118788;1153;65172;-68
2021/01/16 03:40:23;;;;;;;4.03;2.23;;;;;;;-2.19;62.25;102149.98;119171;1151;65117;-70
2021/01/16 03:42:51;;;;;;;3.93;2.10;;;;;;;-2.18;62.39;102154.30;119237;1151;66294;-67
2021/01/16 03:45:21;;;;;;;3.20;1.97;;;;;;;-2.17;62.65;102150.77;119070;1151;65140;-69
2021/01/16 03:47:48;;;;;;;6.80;2.77;;;;;;;-2.17;62.85;102149.02;118867;1151;65166;-68
2021/01/16 03:50:14;;;;;;;3.77;2.07;;;;;;;-2.18;62.22;102152.53;118829;1151;65163;-74
2021/01/16 03:52:44;;;;;;;4.30;2.43;;;;;;;-2.18;62.00;102149.94;118783;1151;65986;-71
2021/01/16 03:55:11;;;;;;;3.65;2.00;;;;;;;-2.22;63.10;102148.35;118878;1151;65166;-70
2021/01/16 03:57:37;;;;;;;4.90;2.20;;;;;;;-2.21;62.56;102144.86;118900;1151;65121;-71
2021/01/16 04:00:10;;;;;;;4.47;2.10;;;;;;;-2.22;62.88;102153.55;118786;1151;65120;-68
2021/01/16 04:02:37;;;;;;;3.47;2.00;;;;;;;-2.18;63.33;102141.30;119005;1151;65117;-69
2021/01/16 04:05:06;;;;;;;4.80;2.00;;;;;;;-2.19;63.34;102137.86;119003;1151;65124;-71
2021/01/16 04:07:32;;;;;;;3.50;2.50;;;;;;;-2.16;62.80;102139.48;122682;1150;63638;-67
2021/01/16 04:10:00;;;;;;;4.33;2.37;;;;;;;-2.17;61.83;102136.02;122586;1149;63143;-68
2021/01/16 04:12:28;;;;;;;3.57;2.20;;;;;;;-2.13;62.14;102136.76;122202;1150;63284;-71
2021/01/16 04:14:55;;;;;;;3.20;1.97;;;;;;;-2.12;62.10;102139.31;118930;1151;65152;-69
2021/01/16 04:17:22;;;;;;;3.70;2.13;;;;;;;-2.11;62.45;102145.34;119040;1151;65171;-66
2021/01/16 04:19:49;;;;;;;4.43;2.40;;;;;;;-2.10;62.89;102141.86;119040;1151;65124;-67
2021/01/16 04:22:15;;;;;;;4.23;1.63;;;;;;;-2.10;62.14;102134.91;118876;1151;65197;-70
2021/01/16 04:24:41;;;;;;;2.27;1.40;;;;;;;-2.11;62.00;102138.39;119043;1151;65236;-68
2021/01/16 04:27:10;;;;;;;2.80;1.70;;;;;;;-2.13;62.59;102137.59;118939;1151;65184;-66
2021/01/16 04:29:36;;;;;;;5.15;2.25;;;;;;;-2.12;62.96;102133.27;119174;1151;65929;-70
2021/01/16 04:32:03;;;;;;;4.30;2.40;;;;;;;-2.11;62.21;102130.59;118802;1151;65062;-68
2021/01/16 04:34:30;;;;;;;3.80;2.47;;;;;;;-2.06;62.61;102127.84;118786;1151;65174;-70
2021/01/16 04:36:56;;;;;;;4.43;2.57;;;;;;;-2.07;62.14;102126.13;118893;1150;65146;-69
2021/01/16 04:39:22;;;;;;;3.33;2.00;;;;;;;-2.05;62.37;102129.52;118814;1151;65210;-69
2021/01/16 04:41:52;;;;;;;3.63;1.87;;;;;;;-2.09;62.65;102118.38;118838;1153;65124;-67
2021/01/16 04:44:21;;;;;;;4.13;1.87;;;;;;;-2.08;62.50;102122.69;118840;1151;65242;-67
2021/01/16 04:46:50;;;;;;;4.90;2.23;;;;;;;-2.09;62.31;102120.14;118962;1151;66291;-71
2021/01/16 04:49:18;;;;;;;4.55;2.50;;;;;;;-2.08;63.15;102124.45;118820;1151;65123;-70
2021/01/16 04:51:47;;;;;;;3.93;2.17;;;;;;;-2.09;62.51;102123.58;118850;1151;65089;-68
2021/01/16 04:54:16;;;;;;;4.55;2.60;;;;;;;-2.10;62.91;102113.27;118878;1151;65076;-66
2021/01/16 04:56:45;;;;;;;4.33;2.33;;;;;;;-2.12;62.77;102113.31;118864;1153;65321;-75
2021/01/16 04:59:12;;;;;;;3.57;2.07;;;;;;;-2.14;62.17;102115.13;119016;1151;65482;-69
2021/01/16 05:01:38;;;;;;;4.65;2.10;;;;;;;-2.15;62.51;102123.81;118957;1151;65114;-67
2021/01/16 05:04:07;;;;;;;4.45;1.75;;;;;;;-2.21;63.50;102118.00;118839;1151;65226;-67
2021/01/16 05:06:39;;;;;;;3.83;1.80;;;;;;;-2.23;62.75;102112.88;119577;1151;65104;-68
2021/01/16 05:09:07;;;;;;;2.97;1.83;;;;;;;-2.24;62.38;102103.37;119373;1151;65034;-68
2021/01/16 05:11:42;;;;;;;3.87;2.17;;;;;;;-2.22;62.86;102096.36;119014;1153;66303;-69
2021/01/16 05:14:17;;;;;;;2.00;1.33;;;;;;;-2.23;62.37;102092.08;118906;1151;65137;-70
2021/01/16 05:16:56;;;;;;;2.52;1.52;;;;;;;-2.27;62.46;102082.70;119051;1151;65052;-74
2021/01/16 05:19:33;;;;;;;2.87;1.43;;;;;;;-2.29;62.39;102089.71;119283;1151;65060;-68
2021/01/16 05:22:02;;;;;;;5.67;2.60;;;;;;;-2.27;62.97;102093.94;119008;1151;65130;-69
2021/01/16 05:24:28;;;;;;;6.53;2.63;;;;;;;-2.26;63.32;102097.38;118956;1151;65152;-69
2021/01/16 05:27:06;;;;;;;2.90;1.70;;;;;;;-2.24;62.57;102098.17;118982;1153;65095;-71
2021/01/16 05:29:35;;;;;;;3.40;2.10;;;;;;;-2.21;62.67;102094.59;119119;1151;65114;-69
2021/01/16 05:32:05;;;;;;;4.00;1.87;;;;;;;-2.22;63.17;102104.16;118976;1151;65217;-70
2021/01/16 05:34:33;;;;;;;4.87;2.00;;;;;;;-2.21;63.20;102092.88;118914;1151;65106;-70
2021/01/16 05:37:00;;;;;;;5.93;2.63;;;;;;;-2.23;63.23;102097.28;118874;1151;65191;-67
2021/01/16 05:39:31;;;;;;;4.30;2.27;;;;;;;-2.23;63.82;102093.81;119096;1151;65108;-69
2021/01/16 05:42:06;;;;;;;6.83;2.53;;;;;;;-2.26;63.72;102099.98;118817;1151;65145;-67
2021/01/16 05:44:35;;;;;;;5.22;2.40;;;;;;;-2.26;64.45;102094.78;118798;1151;65127;-68
2021/01/16 05:47:04;;;;;;;4.37;1.97;;;;;;;-2.27;64.38;102082.70;118828;1151;65146;-69
2021/01/16 05:49:32;;;;;;;4.30;2.37;;;;;;;-2.28;64.90;102084.44;119008;1151;65101;-71
2021/01/16 05:52:05;;;;;;;4.40;2.30;;;;;;;-2.29;64.58;102079.31;118884;1151;65493;-71
2021/01/16 05:54:33;;;;;;;3.30;1.43;;;;;;;-2.33;64.17;102077.73;118990;1151;65117;-67
2021/01/16 05:57:02;;;;;;;6.53;3.33;;;;;;;-2.37;64.05;102079.59;119433;1151;65231;-67
2021/01/16 05:59:31;;;;;;;4.27;2.10;;;;;;;-2.42;64.98;102068.53;119244;1151;65133;-71
2021/01/16 06:02:02;;;;;;;8.00;2.80;;;;;;;-2.44;65.30;102074.66;118889;1151;65124;-68
2021/01/16 06:04:33;;;;;;;5.00;2.55;;;;;;;-2.49;65.71;102075.71;119022;1151;65252;-68
2021/01/16 06:07:07;;;;;;;4.23;2.17;;;;;;;-2.48;64.88;102073.95;119054;1151;65049;-71
2021/01/16 06:09:35;;;;;;;7.30;3.65;;;;;;;-2.53;65.62;102066.34;118852;1151;65146;-70
2021/01/16 06:12:04;;;;;;;6.03;2.67;;;;;;;-2.54;65.66;102071.58;119052;1151;65598;-67
2021/01/16 06:14:44;;;;;;;3.90;2.57;;;;;;;-2.59;66.40;102061.36;119059;1151;65060;-67
2021/01/16 06:17:13;;;;;;;3.63;2.00;;;;;;;-2.62;66.10;102058.86;119184;1151;65108;-70
2021/01/16 06:19:49;;;;;;;4.13;2.47;;;;;;;-2.66;66.88;102059.88;119225;1151;66294;-68
2021/01/16 06:22:17;;;;;;;3.90;2.65;;;;;;;-2.68;65.85;102052.16;119086;1151;65124;-69
2021/01/16 06:24:46;;;;;;;4.57;1.80;;;;;;;-2.71;65.67;102052.25;118845;1151;65121;-68
2021/01/16 06:27:26;;;;;;;3.23;1.77;;;;;;;-2.77;66.51;102043.84;118969;1151;65196;-70
2021/01/16 06:30:01;;;;;;;8.57;3.83;;;;;;;-2.81;66.25;102053.48;118926;1154;65236;-74
2021/01/16 06:32:29;;;;;;;5.17;2.20;;;;;;;-2.85;65.89;102046.70;118813;1151;65132;-70
2021/01/16 06:35:11;;;;;;;3.43;1.63;;;;;;;-2.88;66.28;102047.66;119268;1151;65098;-70
2021/01/16 06:37:49;;;;;;;5.23;3.20;;;;;;;-2.91;66.89;102049.52;119377;1151;65191;-68
2021/01/16 06:40:29;;;;;;;3.60;2.10;;;;;;;-2.95;66.85;102053.98;119131;1151;65078;-68
2021/01/16 06:42:58;;;;;;;3.93;1.70;;;;;;;-2.95;66.77;102048.80;119875;1151;65230;-66
2021/01/16 06:45:29;;;;;;;3.73;1.90;;;;;;;-2.97;66.83;102054.95;119890;1153;65100;-67
2021/01/16 06:48:02;;;;;;;6.20;2.65;;;;;;;-2.94;67.60;102054.83;119300;1151;65210;-67
2021/01/16 06:50:35;;;;;;;4.37;2.33;;;;;;;-2.94;67.42;102050.48;119168;1151;65140;-67
2021/01/16 06:53:03;;;;;;;4.43;1.73;;;;;;;-2.93;66.50;102049.59;119530;1151;65117;-67
2021/01/16 06:55:36;;;;;;;3.73;2.13;;;;;;;-2.95;66.63;102048.80;119227;1153;65121;-67
2021/01/16 06:58:18;;;;;;;5.20;2.83;;;;;;;-2.93;67.42;102056.55;119633;1153;65725;-69
2021/01/16 07:00:55;;;;;;;5.20;2.27;;;;;;;-2.89;67.03;102061.56;119385;1153;65204;-68
2021/01/16 07:03:26;;;;;;;5.10;1.90;;;;;;;-2.87;67.00;102056.30;119135;1153;65063;-67
2021/01/16 07:05:55;;;;;;;3.97;1.80;;;;;;;-2.85;67.04;102051.89;120362;1152;65286;-68
2021/01/16 07:08:23;;;;;;;3.67;1.70;;;;;;;-2.87;66.98;102057.17;119174;1153;65220;-67
2021/01/16 07:10:53;;;;;;;3.77;2.00;;;;;;;-2.87;66.60;102046.78;119814;1151;65244;-69
2021/01/16 07:13:19;;;;;;;4.55;2.10;;;;;;;-2.87;67.12;102051.10;119447;1151;65083;-67
2021/01/16 07:15:47;;;;;;;5.30;2.27;;;;;;;-2.82;67.39;102062.19;119049;1151;65194;-66
2021/01/16 07:18:15;;;;;;;4.07;2.33;;;;;;;-2.76;67.85;102055.91;119182;1151;65134;-68
2021/01/16 07:20:43;;;;;;;5.83;3.37;;;;;;;-2.67;67.97;102058.19;119649;1151;65226;-69
2021/01/16 07:23:09;;;;;;;5.45;2.30;;;;;;;-2.62;67.38;102051.06;119202;1151;65014;-66
2021/01/16 07:25:36;;;;;;;3.97;2.17;;;;;;;-2.58;66.78;102047.45;119375;1151;65116;-66
2021/01/16 07:28:04;;;;;;;4.63;3.13;;;;;;;-2.55;66.95;102041.29;119306;1148;65604;-68
2021/01/16 07:30:32;;;;;;;6.25;2.25;;;;;;;-2.53;66.97;102045.55;119330;1151;65053;-67
2021/01/16 07:33:02;;;;;;;3.67;2.00;;;;;;;-2.54;66.16;102043.84;119575;1151;65166;-66
2021/01/16 07:35:28;;;;;;;4.87;2.30;;;;;;;-2.55;66.71;102041.29;118933;1154;65255;-71
2021/01/16 07:37:55;;;;;;;4.83;2.13;;;;;;;-2.57;66.72;102038.77;119091;1154;65208;-68
2021/01/16 07:40:30;;;;;;;5.73;2.43;;;;;;;-2.58;66.84;102031.87;119102;1153;65631;-67
2021/01/16 07:43:09;;;;;;;2.80;1.53;;;;;;;-2.57;66.60;102028.38;119666;1153;65097;-67
2021/01/16 07:45:41;;;;;;;4.50;1.77;;;;;;;-2.58;65.80;102031.87;119416;1153;65183;-67
2021/01/16 07:48:19;;;;;;;3.90;2.00;;;;;;;-2.55;66.11;102020.50;119634;1153;65118;-69
2021/01/16 07:50:51;;;;;;;5.65;2.65;;;;;;;-2.49;66.53;102015.95;119532;1154;65669;-66
2021/01/16 07:53:29;;;;;;;7.10;2.90;;;;;;;-2.41;66.03;102017.40;119422;1153;65121;-68
2021/01/16 07:56:29;;;;;;;4.70;2.65;;;;;;;-2.33;65.39;102010.16;119417;1152;65041;-68
2021/01/16 07:59:03;;;;;;;5.73;2.80;;;;;;;-2.25;65.83;102015.91;118950;1154;66144;-67
2021/01/16 08:01:39;;;;;;;7.40;3.20;;;;;;;-2.19;66.19;102017.41;119108;1151;65107;-68
2021/01/16 08:04:41;;;;;;;5.90;3.17;;;;;;;-2.16;65.37;102012.94;119426;1153;65107;-72
2021/01/16 08:07:13;;;;;;;7.47;2.97;;;;;;;-2.11;64.45;102013.59;119647;1153;65105;-71
2021/01/16 08:09:49;;;;;;;4.50;2.07;;;;;;;-2.07;64.75;102014.33;119371;1154;65147;-71
2021/01/16 08:12:19;;;;;;;6.13;2.57;;;;;;;-2.08;65.35;102018.69;119564;1154;65026;-75
2021/01/16 08:14:46;;;;;;;5.20;2.60;;;;;;;-2.03;65.46;102022.86;119650;1152;65383;-71
2021/01/16 08:17:19;;;;;;;6.73;2.87;;;;;;;-1.98;65.57;102015.72;119292;1154;66326;-71
2021/01/16 08:20:00;;;;;;;5.50;2.67;;;;;;;-1.93;65.69;102016.39;119458;1154;65132;-72
2021/01/16 08:22:43;;;;;;;7.00;3.00;;;;;;;-1.93;65.50;102017.23;119377;1153;65117;-71
2021/01/16 08:25:12;;;;;;;5.10;2.60;;;;;;;-1.88;65.49;102017.88;119520;1154;65128;-74
2021/01/16 08:27:46;;;;;;;5.17;2.47;;;;;;;-1.84;64.65;102005.61;119780;1152;65047;-74
2021/01/16 08:30:17;;;;;;;5.17;2.92;;;;;;;-1.77;65.47;102014.84;119134;1153;65120;-76
2021/01/16 08:33:12;;;;;;;6.30;3.53;;;;;;;-1.74;65.44;102009.53;119290;1154;65168;-76
2021/01/16 08:35:48;;;;;;;5.28;3.10;;;;;;;-1.68;65.17;102004.08;119889;1154;64458;-77
2021/01/16 08:38:17;;;;;;;6.30;3.33;;;;;;;-1.63;64.19;102003.88;120457;1153;65541;-74
2021/01/16 08:40:55;;;;;;;4.37;2.43;;;;;;;-1.60;64.36;102001.14;119619;1151;65303;-74
2021/01/16 08:43:31;;;;;;;4.43;2.60;;;;;;;-1.59;63.84;101996.77;119334;1153;66330;-72
2021/01/16 08:46:11;;;;;;;4.50;2.57;;;;;;;-1.61;63.95;101994.26;119203;1151;65117;-75
2021/01/16 08:48:40;;;;;;;5.40;2.67;;;;;;;-1.56;64.76;101997.50;119805;1153;65524;-75
2021/01/16 08:51:35;;;;;;;4.77;2.83;;;;;;;-1.52;64.59;101993.02;119575;1153;65028;-75
2021/01/16 08:54:13;;;;;;;5.75;3.20;;;;;;;-1.42;63.99;101983.92;119278;1153;65157;-75
2021/01/16 08:56:43;;;;;;;9.07;3.90;;;;;;;-1.37;64.42;101979.34;119357;1151;65239;-74
2021/01/16 08:59:28;;;;;;;4.85;3.00;;;;;;;-1.30;64.50;101978.16;119352;1151;65187;-73
2021/01/16 09:02:11;;;;;;;5.00;3.13;;;;;;;-1.24;64.19;101983.10;119470;1153;65046;-73
2021/01/16 09:04:42;;;;;;;4.93;2.40;;;;;;;-1.20;63.72;101969.97;119376;1151;65149;-73
2021/01/16 09:07:22;;;;;;;5.20;3.33;;;;;;;-1.13;62.33;101974.81;119411;1151;65031;-76
2021/01/16 09:09:59;;;;;;;5.70;3.50;;;;;;;-1.10;63.84;101968.66;119914;1151;65153;-73
2021/01/16 09:12:30;;;;;;;7.27;2.83;;;;;;;-1.06;62.10;101962.39;119680;1151;65130;-72
2021/01/16 09:15:16;;;;;;;4.97;2.43;;;;;;;-1.07;62.68;101965.90;119634;1151;65210;-76
2021/01/16 09:18:02;;;;;;;7.23;4.00;;;;;;;-1.00;62.13;101967.30;118957;1151;65946;-75
2021/01/16 09:20:34;;;;;;;7.67;4.10;;;;;;;-0.88;62.03;101958.94;118933;1151;65552;-76
2021/01/16 09:23:19;;;;;;;5.57;2.80;;;;;;;-0.80;61.02;101963.81;118912;1151;65115;-75
2021/01/16 09:25:45;;;;;;;4.83;2.77;;;;;;;-0.70;61.14;101964.22;118938;1151;65088;-74
2021/01/16 09:28:11;;;;;;;4.50;2.77;;;;;;;-0.67;61.16;101961.48;118854;1152;66412;-74
2021/01/16 09:30:38;;;;;;;7.97;4.13;;;;;;;-0.68;61.17;101959.78;118811;1154;65121;-73
2021/01/16 09:33:25;;;;;;;5.70;3.03;;;;;;;-0.65;60.53;101959.66;118847;1154;66279;-73
2021/01/16 09:35:52;;;;;;;4.83;2.63;;;;;;;-0.60;59.53;101955.06;118880;1153;66403;-73
2021/01/16 09:38:20;;;;;;;7.60;4.40;;;;;;;-0.56;60.47;101956.61;118895;1151;65095;-72
2021/01/16 09:40:49;;;;;;;5.07;2.60;;;;;;;-0.51;60.79;101957.26;118977;1151;65130;-73
2021/01/16 09:43:26;;;;;;;7.17;3.90;;;;;;;-0.47;60.30;101955.33;118883;1151;65143;-72
2021/01/16 09:45:58;;;;;;;5.23;3.30;;;;;;;-0.41;60.06;101961.09;118977;1151;65153;-72
2021/01/16 09:48:30;;;;;;;5.20;2.70;;;;;;;-0.38;60.84;101961.87;118878;1151;65028;-74
2021/01/16 09:51:00;;;;;;;6.03;3.63;;;;;;;-0.49;58.81;101959.77;118827;1151;65165;-74
2021/01/16 09:53:26;;;;;;;7.10;3.60;;;;;;;-0.57;59.45;101952.33;118921;1151;65087;-71
2021/01/16 09:55:54;;;;;;;5.73;3.43;;;;;;;-0.56;60.08;101956.61;119170;1151;65104;-71
2021/01/16 09:58:36;;;;;;;8.20;4.47;;;;;;;-0.53;60.17;101953.88;118942;1153;65271;-71
2021/01/16 10:01:22;;;;;;;5.80;3.07;;;;;;;-0.46;59.06;101955.27;118880;1151;66292;-73
2021/01/16 10:03:50;;;;;;;8.03;4.67;;;;;;;-0.38;60.72;101954.05;118888;1151;66176;-72
2021/01/16 10:06:18;;;;;;;5.77;2.93;;;;;;;-0.33;60.36;101952.92;118902;1151;66224;-73
2021/01/16 10:08:54;;;;;;;5.60;3.10;;;;;;;-0.20;59.30;101955.78;119052;1153;65150;-72
2021/01/16 10:11:40;;;;;;;10.57;3.90;;;;;;;-0.13;58.85;101943.28;118820;1151;65214;-72
2021/01/16 10:14:10;;;;;;;7.07;4.20;;;;;;;-0.06;58.88;101947.30;122705;1149;62891;-72
2021/01/16 10:16:38;;;;;;;6.57;3.47;;;;;;;-0.03;58.08;101942.76;121136;1151;65117;-74
2021/01/16 10:19:12;;;;;;;8.63;3.10;;;;;;;-0.05;57.85;101933.33;122401;1151;62860;-73
2021/01/16 10:21:55;;;;;;;5.80;3.60;;;;;;;-0.02;57.17;101938.41;122460;1149;63525;-74
2021/01/16 10:24:23;;;;;;;5.47;2.90;;;;;;;0.02;56.64;101931.25;121056;1151;65236;-74
2021/01/16 10:26:51;;;;;;;5.13;3.33;;;;;;;0.03;55.74;101930.34;118991;1151;65122;-75
2021/01/16 10:29:36;;;;;;;7.00;4.15;;;;;;;0.00;56.02;101923.52;118852;1151;65121;-74
2021/01/16 10:32:21;;;;;;;;;;;;;;;-0.02;56.74;101926.20;120293;1151;66183;-75
2021/01/16 10:34:50;;;;;;;4.50;2.70;;;;;;;-0.11;55.54;101916.20;118914;1154;65121;-73
2021/01/16 10:37:17;;;;;;;6.23;2.33;;;;;;;-0.14;57.49;101913.76;118879;1151;65245;-74
2021/01/16 10:39:50;;;;;;;5.57;2.60;;;;;;;-0.15;56.96;101901.66;119310;1153;65131;-74
2021/01/16 10:42:18;;;;;;;5.50;2.83;;;;;;;-0.18;56.80;101899.18;118866;1151;65250;-74
2021/01/16 10:44:45;;;;;;;5.05;2.70;;;;;;;-0.13;56.79;101897.17;118870;1151;65159;-75
2021/01/16 10:47:31;;;;;;;4.83;2.53;;;;;;;-0.09;57.82;101890.05;119131;1151;65599;-75
2021/01/16 10:50:08;;;;;;;5.65;3.00;;;;;;;-0.06;56.35;101884.70;118850;1154;65219;-75
2021/01/16 10:52:35;;;;;;;4.97;3.20;;;;;;;-0.04;56.70;101883.70;118923;1151;65099;-74
2021/01/16 10:55:05;;;;;;;3.67;2.40;;;;;;;0.07;55.34;101880.55;118878;1151;65118;-75
2021/01/16 10:57:46;;;;;;;4.65;2.70;;;;;;;0.14;55.07;101886.29;119443;1151;65244;-75
2021/01/16 11:00:18;;;;;;;6.50;3.15;;;;;;;0.23;55.50;101875.38;118943;1151;65484;-78
2021/01/16 11:02:46;;;;;;;6.20;3.63;;;;;;;0.27;55.38;101871.69;119006;1154;66433;-77
2021/01/16 11:05:16;;;;;;;3.43;2.13;;;;;;;0.26;54.82;101864.80;118946;1151;65107;-74
2021/01/16 11:07:43;;;;;;;6.10;3.10;;;;;;;0.23;55.85;101854.49;118841;1151;65078;-74
2021/01/16 11:10:10;;;;;;;4.35;2.65;;;;;;;0.27;56.13;101855.19;119042;1151;65123;-74
2021/01/16 11:12:37;;;;;;;6.23;3.80;;;;;;;0.34;56.97;101852.19;118887;1153;66266;-74
2021/01/16 11:15:25;;;;;;;5.87;2.77;;;;;;;0.45;56.36;101853.37;119086;1151;65588;-74
2021/01/16 11:17:56;;;;;;;5.83;3.20;;;;;;;0.52;56.35;101844.31;119098;1151;65146;-75
2021/01/16 11:20:26;;;;;;;5.47;3.10;;;;;;;0.60;56.03;101848.20;119097;1150;65120;-74
2021/01/16 11:23:04;;;;;;;5.80;3.60;;;;;;;0.72;56.17;101833.65;118916;1151;65129;-75
2021/01/16 11:25:43;;;;;;;4.20;2.37;;;;;;;0.85;56.64;101830.34;119064;1150;65121;-74
2021/01/16 11:28:12;;;;;;;6.73;3.03;;;;;;;0.94;56.22;101824.63;119142;1151;65127;-75
2021/01/16 11:30:46;;;;;;;6.33;2.70;;;;;;;0.98;55.56;101823.54;118998;1151;65959;-74
2021/01/16 11:33:16;;;;;;;5.60;3.50;;;;;;;0.94;55.71;101824.63;118968;1151;65142;-77
2021/01/16 11:35:43;;;;;;;5.10;2.90;;;;;;;0.98;56.15;101811.31;118868;1151;65198;-79